Time;durP1;ratioP1;P1;durP2;ratioP2;P2;SDS_P1;SDS_P2;PMS_P1;PMS_P2;Temp;Humidity;BMP_temperature;BMP_pressure;BME280_temperature;BME280_humidity;BME280_pressure;Samples;Min_cycle;Max_cycle;Signal;HPM_P1;HPM_P2
2022/12/11 00:01:56;;;;;;;119.05;32.60;;;;;;;;;;5010150;28;99293;-67
2022/12/11 00:04:23;;;;;;;112.70;32.17;;;;;;;;;;5010470;28;100228;-69
2022/12/11 00:06:49;;;;;;;113.90;32.85;;;;;;;;;;5009857;28;98915;-68
2022/12/11 00:09:16;;;;;;;103.85;31.70;;;;;;;;;;5008692;28;99214;-68
2022/12/11 00:11:42;;;;;;;132.30;33.28;;;;;;;;;;5008156;28;101400;-68
2022/12/11 00:14:09;;;;;;;119.32;34.70;;;;;;;;;;5009805;28;98638;-68
2022/12/11 00:16:35;;;;;;;102.13;32.40;;;;;;;;;;5010104;28;99692;-69
2022/12/11 00:19:02;;;;;;;110.82;33.70;;;;;;;;;;5008343;28;99620;-69
2022/12/11 00:21:28;;;;;;;113.78;32.33;;;;;;;;;;5013237;28;98580;-68
2022/12/11 00:23:54;;;;;;;121.13;34.38;;;;;;;;;;5009261;28;99586;-68
2022/12/11 00:26:21;;;;;;;102.03;33.28;;;;;;;;;;5009706;28;98477;-68
2022/12/11 00:28:50;;;;;;;110.63;33.60;;;;;;;;;;5010585;28;99582;-68
2022/12/11 00:31:17;;;;;;;116.68;35.67;;;;;;;;;;5008853;28;100005;-67
2022/12/11 00:33:44;;;;;;;106.20;31.63;;;;;;;;;;5009827;28;98499;-68
2022/12/11 00:36:15;;;;;;;95.32;31.52;;;;;;;;;;5007705;28;99656;-69
2022/12/11 00:38:41;;;;;;;93.63;31.10;;;;;;;;;;5009475;28;99889;-68
2022/12/11 00:41:08;;;;;;;96.38;33.17;;;;;;;;;;5009450;28;98517;-68
2022/12/11 00:43:34;;;;;;;99.18;31.48;;;;;;;;;;5012678;28;100665;-69
2022/12/11 00:46:01;;;;;;;106.07;32.22;;;;;;;;;;5009045;28;98608;-68
2022/12/11 00:48:27;;;;;;;106.10;31.95;;;;;;;;;;5009488;28;99333;-69
2022/12/11 00:50:53;;;;;;;112.65;34.00;;;;;;;;;;5009152;28;99534;-68
2022/12/11 00:53:20;;;;;;;101.78;32.30;;;;;;;;;;5009679;28;97870;-68
2022/12/11 00:55:46;;;;;;;107.85;32.53;;;;;;;;;;5009491;28;98685;-69
2022/12/11 00:58:12;;;;;;;112.65;33.88;;;;;;;;;;5008838;28;99845;-68
2022/12/11 01:00:39;;;;;;;113.50;34.55;;;;;;;;;;5008828;28;99323;-69
2022/12/11 01:03:06;;;;;;;106.18;31.92;;;;;;;;;;5008932;28;100020;-68
2022/12/11 01:05:32;;;;;;;107.55;33.30;;;;;;;;;;5012597;28;103771;-69
2022/12/11 01:07:59;;;;;;;109.05;34.35;;;;;;;;;;5008969;28;99735;-69
2022/12/11 01:10:25;;;;;;;104.20;33.85;;;;;;;;;;5008650;28;99899;-68
2022/12/11 01:12:54;;;;;;;126.30;35.78;;;;;;;;;;5009562;28;98504;-68
2022/12/11 01:15:21;;;;;;;125.68;36.90;;;;;;;;;;5009290;28;99240;-68
2022/12/11 01:17:51;;;;;;;126.45;37.22;;;;;;;;;;5009706;28;102664;-68
2022/12/11 01:20:18;;;;;;;133.20;36.60;;;;;;;;;;5009069;28;98532;-69
2022/12/11 01:22:44;;;;;;;125.95;34.92;;;;;;;;;;5009052;28;99344;-69
2022/12/11 01:25:10;;;;;;;124.40;36.63;;;;;;;;;;5007991;28;100223;-67
2022/12/11 01:27:37;;;;;;;125.72;36.67;;;;;;;;;;5012215;28;98548;-68
2022/12/11 01:30:06;;;;;;;136.93;38.10;;;;;;;;;;5008402;28;99480;-68
2022/12/11 01:32:32;;;;;;;128.27;36.53;;;;;;;;;;5008954;28;98802;-69
2022/12/11 01:34:59;;;;;;;124.05;36.33;;;;;;;;;;5008937;28;99621;-68
2022/12/11 01:37:25;;;;;;;119.55;36.22;;;;;;;;;;5007144;28;99533;-68
2022/12/11 01:39:51;;;;;;;138.88;36.30;;;;;;;;;;5006418;28;98817;-67
2022/12/11 01:42:19;;;;;;;128.93;35.90;;;;;;;;;;4989778;28;99711;-69
2022/12/11 01:44:45;;;;;;;120.93;35.80;;;;;;;;;;5003233;28;99893;-69
2022/12/11 01:47:11;;;;;;;139.30;37.67;;;;;;;;;;5011199;28;98542;-68
2022/12/11 01:49:39;;;;;;;129.63;37.05;;;;;;;;;;5007733;28;100611;-69
2022/12/11 01:52:07;;;;;;;117.38;35.97;;;;;;;;;;5008425;28;98876;-69
2022/12/11 01:54:33;;;;;;;110.63;33.67;;;;;;;;;;5008508;28;99531;-68
2022/12/11 01:57:01;;;;;;;140.57;36.08;;;;;;;;;;5008407;28;100510;-68
2022/12/11 01:59:29;;;;;;;109.80;33.15;;;;;;;;;;5008615;28;98538;-68
2022/12/11 02:01:58;;;;;;;119.47;35.55;;;;;;;;;;5007420;28;99279;-68
2022/12/11 02:04:24;;;;;;;111.53;35.17;;;;;;;;;;5008114;28;99900;-68
2022/12/11 02:06:51;;;;;;;118.03;35.53;;;;;;;;;;5007379;28;97822;-68
2022/12/11 02:09:20;;;;;;;107.07;35.42;;;;;;;;;;5011136;28;99096;-68
2022/12/11 02:12:05;;;;;;;118.80;37.10;;;;;;;;;;5010922;28;98741;-68
2022/12/11 02:14:44;;;;;;;106.20;34.58;;;;;;;;;;5011534;28;100224;-68
2022/12/11 02:17:17;;;;;;;120.07;34.88;;;;;;;;;;5010568;28;100889;-68
2022/12/11 02:19:51;;;;;;;109.13;35.53;;;;;;;;;;5011450;28;98534;-68
2022/12/11 02:22:41;;;;;;;123.65;37.25;;;;;;;;;;5011855;28;99323;-68
2022/12/11 02:25:10;;;;;;;109.68;34.88;;;;;;;;;;5007957;28;99741;-69
2022/12/11 02:27:49;;;;;;;107.70;35.97;;;;;;;;;;5011844;28;98487;-69
2022/12/11 02:30:15;;;;;;;111.93;35.50;;;;;;;;;;5011644;28;99223;-68
2022/12/11 02:32:47;;;;;;;107.18;36.78;;;;;;;;;;5015189;28;99155;-69
2022/12/11 02:35:17;;;;;;;98.18;33.63;;;;;;;;;;5011516;28;98824;-68
2022/12/11 02:37:45;;;;;;;100.70;34.33;;;;;;;;;;5011225;28;99680;-68
2022/12/11 02:40:13;;;;;;;105.60;35.28;;;;;;;;;;5010532;28;100201;-68
2022/12/11 02:42:41;;;;;;;94.95;33.15;;;;;;;;;;5011281;28;100082;-68
2022/12/11 02:45:08;;;;;;;95.43;34.55;;;;;;;;;;5011061;28;100501;-68
2022/12/11 02:47:36;;;;;;;98.57;34.40;;;;;;;;;;5011398;28;98663;-69
2022/12/11 02:50:06;;;;;;;92.05;32.97;;;;;;;;;;5011534;28;102244;-68
2022/12/11 02:52:33;;;;;;;93.15;32.80;;;;;;;;;;5010074;28;100534;-69
2022/12/11 02:55:00;;;;;;;86.18;32.00;;;;;;;;;;5012875;28;98550;-69
2022/12/11 02:57:30;;;;;;;86.18;32.40;;;;;;;;;;5010062;28;99064;-69
2022/12/11 02:59:56;;;;;;;86.70;33.08;;;;;;;;;;5011406;28;99150;-68
2022/12/11 03:02:22;;;;;;;93.25;32.63;;;;;;;;;;5011155;28;99211;-69
2022/12/11 03:04:49;;;;;;;85.45;33.53;;;;;;;;;;5010094;28;100269;-68
2022/12/11 03:07:22;;;;;;;82.20;32.22;;;;;;;;;;5010774;28;98514;-69
2022/12/11 03:09:49;;;;;;;88.38;33.85;;;;;;;;;;5010960;28;99172;-68
2022/12/11 03:12:17;;;;;;;79.28;31.58;;;;;;;;;;5010677;28;99589;-68
2022/12/11 03:14:44;;;;;;;92.72;33.15;;;;;;;;;;5010792;28;98517;-68
2022/12/11 03:17:20;;;;;;;84.70;32.83;;;;;;;;;;5014039;28;100321;-68
2022/12/11 03:19:46;;;;;;;80.22;32.03;;;;;;;;;;5009629;28;98885;-69
2022/12/11 03:22:17;;;;;;;86.03;34.35;;;;;;;;;;5008572;28;99303;-68
2022/12/11 03:24:51;;;;;;;76.05;32.42;;;;;;;;;;5010292;28;99492;-68
2022/12/11 03:27:18;;;;;;;87.22;31.52;;;;;;;;;;5010842;28;98470;-68
2022/12/11 03:29:52;;;;;;;76.82;32.65;;;;;;;;;;5010109;28;99444;-68
2022/12/11 03:32:21;;;;;;;79.57;32.35;;;;;;;;;;5010285;28;99724;-69
2022/12/11 03:34:48;;;;;;;86.13;33.10;;;;;;;;;;5010761;28;98971;-68
2022/12/11 03:37:15;;;;;;;74.75;32.88;;;;;;;;;;5013545;28;100287;-68
2022/12/11 03:39:43;;;;;;;70.97;31.20;;;;;;;;;;5010412;28;98496;-68
2022/12/11 03:42:12;;;;;;;82.32;32.50;;;;;;;;;;5002754;28;99532;-69
2022/12/11 03:44:39;;;;;;;80.20;32.67;;;;;;;;;;4990040;28;102502;-69
2022/12/11 03:47:06;;;;;;;70.60;31.17;;;;;;;;;;5008695;28;97740;-67
2022/12/11 03:49:35;;;;;;;75.95;32.65;;;;;;;;;;5010792;28;98621;-68
2022/12/11 03:52:02;;;;;;;68.50;30.17;;;;;;;;;;5008751;28;100505;-68
2022/12/11 03:54:29;;;;;;;66.07;30.10;;;;;;;;;;5010139;28;99513;-69
2022/12/11 03:56:58;;;;;;;63.35;27.98;;;;;;;;;;5009907;28;100419;-69
2022/12/11 03:59:24;;;;;;;65.93;27.35;;;;;;;;;;5013183;28;99582;-68
2022/12/11 04:01:50;;;;;;;63.05;28.33;;;;;;;;;;5009810;27;98913;-69
2022/12/11 04:04:17;;;;;;;51.83;25.10;;;;;;;;;;5009834;28;99893;-68
2022/12/11 04:06:43;;;;;;;49.22;23.98;;;;;;;;;;5009889;28;98875;-68
2022/12/11 04:09:10;;;;;;;53.38;26.05;;;;;;;;;;5010039;28;99262;-68
2022/12/11 04:11:36;;;;;;;53.72;26.05;;;;;;;;;;5010069;28;99102;-69
2022/12/11 04:16:52;;;;;;;45.53;21.55;;;;;;;;;;5010089;28;99564;-68
2022/12/11 04:24:49;;;;;;;39.75;21.75;;;;;;;;;;5009455;28;99484;-68
2022/12/11 04:27:47;;;;;;;42.17;22.85;;;;;;;;;;5009731;28;98505;-68
2022/12/11 04:30:03;;;;;;;41.22;21.88;;;;;;;;;;5009835;28;99424;-68
2022/12/11 04:32:30;;;;;;;40.13;21.63;;;;;;;;;;5009350;28;99705;-69
2022/12/11 04:34:56;;;;;;;35.60;20.63;;;;;;;;;;5008715;28;98605;-68
2022/12/11 04:37:22;;;;;;;37.72;20.23;;;;;;;;;;5010074;28;99222;-69
2022/12/11 04:39:49;;;;;;;38.78;20.85;;;;;;;;;;5009571;28;99507;-68
2022/12/11 04:42:15;;;;;;;37.90;20.48;;;;;;;;;;5009507;28;98879;-69
2022/12/11 04:44:41;;;;;;;37.90;20.42;;;;;;;;;;5011449;28;99337;-68
2022/12/11 04:47:08;;;;;;;41.13;23.15;;;;;;;;;;5010314;28;98551;-69
2022/12/11 04:49:34;;;;;;;39.08;21.80;;;;;;;;;;5009341;28;99685;-68
2022/12/11 04:52:00;;;;;;;47.50;23.67;;;;;;;;;;5009058;28;99554;-69
2022/12/11 04:54:28;;;;;;;42.38;23.42;;;;;;;;;;5009942;28;98494;-68
2022/12/11 04:56:54;;;;;;;42.63;23.08;;;;;;;;;;5009244;28;99626;-69
2022/12/11 04:59:21;;;;;;;42.63;23.70;;;;;;;;;;5009117;28;100580;-68
2022/12/11 05:01:47;;;;;;;44.65;23.77;;;;;;;;;;5009545;28;97721;-68
2022/12/11 05:04:13;;;;;;;40.08;22.77;;;;;;;;;;5009216;28;98582;-69
2022/12/11 05:06:40;;;;;;;39.83;22.23;;;;;;;;;;5012156;28;99520;-69
2022/12/11 05:09:09;;;;;;;39.65;22.05;;;;;;;;;;5008726;28;99308;-68
2022/12/11 05:11:36;;;;;;;40.05;21.73;;;;;;;;;;5008795;28;99570;-68
2022/12/11 05:14:03;;;;;;;41.33;22.65;;;;;;;;;;5009464;28;98508;-68
2022/12/11 05:16:29;;;;;;;40.00;22.25;;;;;;;;;;5009287;28;99263;-68
2022/12/11 05:18:55;;;;;;;41.30;22.13;;;;;;;;;;5008583;28;99929;-69
2022/12/11 05:21:22;;;;;;;38.42;21.60;;;;;;;;;;5007291;28;98510;-68
2022/12/11 05:23:48;;;;;;;42.05;21.60;;;;;;;;;;5009533;28;103366;-69
2022/12/11 05:26:16;;;;;;;41.10;21.17;;;;;;;;;;5008092;28;98873;-68
2022/12/11 05:28:42;;;;;;;36.28;20.73;;;;;;;;;;5010975;28;98660;-69
2022/12/11 05:31:11;;;;;;;36.67;20.67;;;;;;;;;;5008687;28;100500;-68
2022/12/11 05:33:38;;;;;;;35.63;19.80;;;;;;;;;;5008427;28;99326;-68
2022/12/11 05:36:05;;;;;;;36.42;21.08;;;;;;;;;;5008677;28;100206;-68
2022/12/11 05:38:31;;;;;;;39.72;22.65;;;;;;;;;;5007112;28;99523;-69
2022/12/11 05:40:59;;;;;;;38.42;20.63;;;;;;;;;;5008024;28;98594;-67
2022/12/11 05:43:26;;;;;;;37.28;20.30;;;;;;;;;;4992196;28;99445;-68
2022/12/11 05:45:53;;;;;;;40.05;22.60;;;;;;;;;;4997017;28;100067;-68
2022/12/11 05:48:19;;;;;;;37.80;20.15;;;;;;;;;;5015569;28;98522;-68
2022/12/11 05:50:55;;;;;;;35.47;20.55;;;;;;;;;;5012451;28;98758;-68
2022/12/11 05:53:21;;;;;;;41.38;23.33;;;;;;;;;;5011834;28;98502;-68
2022/12/11 05:55:48;;;;;;;43.00;21.83;;;;;;;;;;5012292;28;99304;-68
2022/12/11 05:58:14;;;;;;;43.92;22.58;;;;;;;;;;5010842;28;100360;-68
2022/12/11 06:00:41;;;;;;;37.17;21.48;;;;;;;;;;5012063;28;99032;-68
2022/12/11 06:03:07;;;;;;;44.53;23.30;;;;;;;;;;5012048;28;99277;-69
2022/12/11 06:05:37;;;;;;;43.95;24.42;;;;;;;;;;5012099;28;101714;-69
2022/12/11 06:08:04;;;;;;;45.73;23.50;;;;;;;;;;5011619;28;98560;-68
2022/12/11 06:10:30;;;;;;;49.50;24.85;;;;;;;;;;5014947;28;99822;-69
2022/12/11 06:12:56;;;;;;;43.55;23.52;;;;;;;;;;5011335;28;98809;-69
2022/12/11 06:15:22;;;;;;;45.60;24.55;;;;;;;;;;5012748;28;99254;-68
2022/12/11 06:17:49;;;;;;;45.97;23.30;;;;;;;;;;5011780;28;99867;-69
2022/12/11 06:20:15;;;;;;;46.95;24.58;;;;;;;;;;5011899;28;98773;-68
2022/12/11 06:22:41;;;;;;;47.80;23.98;;;;;;;;;;5011194;28;99536;-68
2022/12/11 06:25:08;;;;;;;50.60;25.42;;;;;;;;;;5010174;28;99598;-69
2022/12/11 06:27:35;;;;;;;46.55;24.20;;;;;;;;;;5011297;28;98828;-68
2022/12/11 06:30:01;;;;;;;41.95;23.45;;;;;;;;;;5011447;28;99251;-68
2022/12/11 06:32:27;;;;;;;43.33;23.05;;;;;;;;;;5014659;28;99526;-68
2022/12/11 06:34:54;;;;;;;45.47;22.52;;;;;;;;;;5010410;28;101468;-69
2022/12/11 06:37:20;;;;;;;45.63;24.30;;;;;;;;;;5009663;28;99526;-68
2022/12/11 06:39:46;;;;;;;50.13;24.85;;;;;;;;;;5011980;28;97761;-68
2022/12/11 06:42:13;;;;;;;46.08;24.63;;;;;;;;;;5011436;28;99638;-68
2022/12/11 06:44:39;;;;;;;44.72;24.73;;;;;;;;;;5011114;28;99741;-68
2022/12/11 06:47:05;;;;;;;51.45;25.33;;;;;;;;;;5011546;28;99245;-68
2022/12/11 06:49:32;;;;;;;48.53;25.00;;;;;;;;;;5011099;28;99925;-69
2022/12/11 06:51:58;;;;;;;51.00;26.17;;;;;;;;;;5010925;28;99685;-68
2022/12/11 06:54:25;;;;;;;51.10;25.83;;;;;;;;;;5014850;28;98494;-68
2022/12/11 06:56:52;;;;;;;53.45;27.63;;;;;;;;;;5010461;28;99526;-67
2022/12/11 06:59:18;;;;;;;55.78;27.40;;;;;;;;;;5011137;28;98476;-68
2022/12/11 07:01:44;;;;;;;50.40;26.73;;;;;;;;;;5010130;28;100553;-70
2022/12/11 07:04:10;;;;;;;57.47;28.52;;;;;;;;;;5011148;28;98948;-68
2022/12/11 07:06:37;;;;;;;55.72;28.33;;;;;;;;;;5010978;28;98561;-68
2022/12/11 07:09:04;;;;;;;55.45;28.15;;;;;;;;;;5010886;28;100146;-69
2022/12/11 07:11:30;;;;;;;48.30;26.45;;;;;;;;;;5010119;28;100658;-69
2022/12/11 07:13:59;;;;;;;48.53;25.35;;;;;;;;;;5010873;28;98555;-68
2022/12/11 07:16:26;;;;;;;53.30;26.38;;;;;;;;;;5014220;28;99255;-68
2022/12/11 07:18:52;;;;;;;44.53;24.55;;;;;;;;;;5010662;28;98526;-69
2022/12/11 07:21:19;;;;;;;52.50;26.20;;;;;;;;;;5010911;28;99260;-69
2022/12/11 07:23:46;;;;;;;44.45;24.63;;;;;;;;;;5010342;28;99994;-69
2022/12/11 07:26:13;;;;;;;50.47;25.80;;;;;;;;;;5010752;28;99433;-68
2022/12/11 07:28:40;;;;;;;44.13;24.33;;;;;;;;;;5010908;28;99281;-69
2022/12/11 07:31:17;;;;;;;40.55;24.38;;;;;;;;;;5010211;28;99526;-68
2022/12/11 07:33:43;;;;;;;46.03;23.52;;;;;;;;;;5010615;28;98490;-68
2022/12/11 07:36:11;;;;;;;43.28;25.40;;;;;;;;;;5009731;28;99205;-68
2022/12/11 07:38:37;;;;;;;44.53;25.90;;;;;;;;;;5013754;28;100571;-68
2022/12/11 07:41:05;;;;;;;45.20;25.17;;;;;;;;;;5010439;28;99734;-69
2022/12/11 07:43:32;;;;;;;48.80;26.85;;;;;;;;;;5002362;28;99928;-68
2022/12/11 07:46:05;;;;;;;45.65;25.92;;;;;;;;;;5010247;28;98605;-69
2022/12/11 07:48:33;;;;;;;44.50;25.88;;;;;;;;;;5008887;28;99321;-69
2022/12/11 07:51:26;;;;;;;43.72;26.40;;;;;;;;;;5010162;28;99570;-68
2022/12/11 07:53:58;;;;;;;43.22;26.02;;;;;;;;;;5009307;28;97871;-68
2022/12/11 07:56:24;;;;;;;46.40;27.15;;;;;;;;;;5010376;28;100125;-68
2022/12/11 07:58:51;;;;;;;53.90;28.88;;;;;;;;;;5013212;28;100597;-68
2022/12/11 08:01:18;;;;;;;47.75;26.77;;;;;;;;;;5009427;28;99353;-69
2022/12/11 08:03:45;;;;;;;47.83;27.65;;;;;;;;;;5008700;28;100493;-69
2022/12/11 08:06:11;;;;;;;50.38;28.27;;;;;;;;;;5009902;28;98509;-67
2022/12/11 08:08:38;;;;;;;47.22;27.13;;;;;;;;;;5009512;28;100557;-68
2022/12/11 08:11:05;;;;;;;48.75;28.55;;;;;;;;;;5009728;28;99681;-68
2022/12/11 08:13:32;;;;;;;48.20;28.33;;;;;;;;;;5009967;28;98589;-68
2022/12/11 08:16:01;;;;;;;43.03;26.13;;;;;;;;;;5010415;28;99587;-68
2022/12/11 08:18:29;;;;;;;45.53;26.55;;;;;;;;;;5010292;28;98785;-67
2022/12/11 08:20:55;;;;;;;43.60;25.48;;;;;;;;;;5013165;28;98437;-68
2022/12/11 08:23:21;;;;;;;47.08;26.67;;;;;;;;;;5009291;28;99490;-69
2022/12/11 08:25:48;;;;;;;50.83;27.52;;;;;;;;;;5009568;28;99255;-69
2022/12/11 08:28:14;;;;;;;49.78;25.75;;;;;;;;;;5009511;28;99945;-69
2022/12/11 08:30:40;;;;;;;40.35;24.08;;;;;;;;;;5007789;28;99451;-68
2022/12/11 08:33:06;;;;;;;45.60;23.98;;;;;;;;;;5010041;28;98561;-68
2022/12/11 08:35:36;;;;;;;43.13;23.13;;;;;;;;;;5009539;28;99245;-68
2022/12/11 08:38:03;;;;;;;41.63;22.73;;;;;;;;;;5009302;28;99724;-68
2022/12/11 08:40:29;;;;;;;40.20;22.42;;;;;;;;;;5009780;28;98514;-68
2022/12/11 08:42:55;;;;;;;37.85;21.67;;;;;;;;;;5012846;28;99246;-69
2022/12/11 08:45:22;;;;;;;41.58;22.75;;;;;;;;;;5009190;28;98633;-69
2022/12/11 08:47:48;;;;;;;40.92;22.48;;;;;;;;;;5009736;28;100338;-68
2022/12/11 08:50:14;;;;;;;37.85;21.42;;;;;;;;;;5008521;28;100410;-68
2022/12/11 08:52:41;;;;;;;44.88;24.10;;;;;;;;;;5009883;28;98822;-68
2022/12/11 08:55:07;;;;;;;41.78;22.48;;;;;;;;;;5009257;28;99355;-68
2022/12/11 08:57:34;;;;;;;44.97;22.83;;;;;;;;;;5009056;28;100711;-67
2022/12/11 09:00:00;;;;;;;41.75;22.65;;;;;;;;;;5009436;28;98817;-68
2022/12/11 09:02:26;;;;;;;38.80;23.02;;;;;;;;;;5009133;28;101460;-68
2022/12/11 09:04:53;;;;;;;40.42;23.25;;;;;;;;;;5012200;28;99505;-68
2022/12/11 09:07:19;;;;;;;38.53;22.05;;;;;;;;;;5009883;28;100191;-68
2022/12/11 09:09:45;;;;;;;43.15;22.90;;;;;;;;;;5008741;28;99815;-68
2022/12/11 09:12:12;;;;;;;41.08;23.50;;;;;;;;;;5009666;28;99476;-67
2022/12/11 09:14:39;;;;;;;42.50;22.60;;;;;;;;;;5007421;28;99586;-68
2022/12/11 09:17:05;;;;;;;39.95;23.10;;;;;;;;;;5009279;28;100784;-68
2022/12/11 09:19:31;;;;;;;42.00;23.45;;;;;;;;;;5009394;28;98598;-68
2022/12/11 09:21:58;;;;;;;44.15;23.33;;;;;;;;;;5012913;28;98436;-68
2022/12/11 09:24:24;;;;;;;46.80;25.08;;;;;;;;;;5012431;28;100651;-68
2022/12/11 09:26:50;;;;;;;46.17;26.15;;;;;;;;;;5015916;28;98514;-68
2022/12/11 09:29:17;;;;;;;42.53;24.63;;;;;;;;;;5012180;28;99413;-68
2022/12/11 09:31:43;;;;;;;38.97;22.98;;;;;;;;;;5012386;28;98084;-69
2022/12/11 09:34:10;;;;;;;40.85;23.65;;;;;;;;;;5011235;28;98754;-68
2022/12/11 09:36:38;;;;;;;42.33;24.23;;;;;;;;;;5012349;28;100006;-68
2022/12/11 09:39:05;;;;;;;47.35;23.40;;;;;;;;;;5010107;28;99288;-68
2022/12/11 09:41:34;;;;;;;42.30;22.55;;;;;;;;;;5012247;28;100006;-69
2022/12/11 09:44:21;;;;;;;41.22;23.60;;;;;;;;;;5002039;28;100492;-69
2022/12/11 09:46:49;;;;;;;43.33;23.90;;;;;;;;;;5007872;28;98818;-69
2022/12/11 09:49:22;;;;;;;46.38;24.00;;;;;;;;;;5013778;28;99374;-69
2022/12/11 09:51:59;;;;;;;41.95;24.77;;;;;;;;;;5012084;28;98609;-69
2022/12/11 09:54:25;;;;;;;39.63;23.13;;;;;;;;;;5012339;28;100289;-69
2022/12/11 09:57:04;;;;;;;43.42;24.23;;;;;;;;;;5012186;28;99467;-68
2022/12/11 09:59:43;;;;;;;42.78;23.88;;;;;;;;;;5012040;28;98794;-68
2022/12/11 10:02:16;;;;;;;54.90;27.65;;;;;;;;;;5010595;28;99285;-68
2022/12/11 10:04:45;;;;;;;49.22;25.52;;;;;;;;;;5011300;28;100426;-68
2022/12/11 10:07:12;;;;;;;51.03;25.58;;;;;;;;;;5011826;28;98625;-68
2022/12/11 10:09:50;;;;;;;44.20;23.30;;;;;;;;;;5015065;28;99797;-68
2022/12/11 10:12:45;;;;;;;61.50;29.77;;;;;;;;;;5011839;28;98788;-69
2022/12/11 10:15:24;;;;;;;51.45;25.20;;;;;;;;;;4989429;28;100727;-68
2022/12/11 10:17:52;;;;;;;42.75;23.25;;;;;;;;;;4989510;28;100686;-68
2022/12/11 10:20:19;;;;;;;48.78;25.98;;;;;;;;;;4989064;28;99107;-68
2022/12/11 10:22:47;;;;;;;43.97;23.38;;;;;;;;;;4989691;28;99366;-68
2022/12/11 10:25:19;;;;;;;42.55;21.88;;;;;;;;;;4989005;28;99719;-68
2022/12/11 10:27:45;;;;;;;39.72;21.48;;;;;;;;;;4989642;28;98911;-69
2022/12/11 10:30:11;;;;;;;37.53;21.10;;;;;;;;;;4988806;28;99351;-68
2022/12/11 10:32:43;;;;;;;37.28;21.90;;;;;;;;;;4991638;28;99575;-68
2022/12/11 10:35:16;;;;;;;41.42;23.02;;;;;;;;;;4989165;28;99226;-69
2022/12/11 10:37:43;;;;;;;35.13;20.42;;;;;;;;;;4988688;28;99778;-68
2022/12/11 10:40:10;;;;;;;39.58;20.83;;;;;;;;;;4972649;28;98742;-68
2022/12/11 10:42:36;;;;;;;36.10;20.52;;;;;;;;;;4989165;28;99617;-68
2022/12/11 10:45:14;;;;;;;36.47;20.42;;;;;;;;;;4987588;28;99540;-68
2022/12/11 10:47:41;;;;;;;37.15;20.60;;;;;;;;;;4989598;28;97840;-68
2022/12/11 10:50:21;;;;;;;36.97;19.90;;;;;;;;;;4988682;28;98705;-68
2022/12/11 10:52:47;;;;;;;33.67;19.73;;;;;;;;;;5009446;28;99725;-68
2022/12/11 10:55:21;;;;;;;37.60;20.08;;;;;;;;;;5014209;28;99213;-68
2022/12/11 10:57:55;;;;;;;39.20;20.65;;;;;;;;;;5011102;28;100569;-68
2022/12/11 11:00:33;;;;;;;86.47;33.92;;;;;;;;;;5011128;28;99072;-68
2022/12/11 11:03:00;;;;;;;68.15;27.40;;;;;;;;;;5010987;28;99467;-68
2022/12/11 11:05:33;;;;;;;36.80;18.85;;;;;;;;;;5010515;28;99840;-69
2022/12/11 11:08:02;;;;;;;35.67;20.65;;;;;;;;;;5010677;28;98604;-69
2022/12/11 11:10:29;;;;;;;36.38;21.48;;;;;;;;;;5011092;28;99497;-68
2022/12/11 11:12:59;;;;;;;51.58;20.60;;;;;;;;;;5011191;28;98792;-69
2022/12/11 11:15:26;;;;;;;34.45;21.92;;;;;;;;;;5011223;28;98989;-69
2022/12/11 11:17:54;;;;;;;33.33;18.00;;;;;;;;;;5013950;28;99429;-69
2022/12/11 11:20:25;;;;;;;33.65;19.38;;;;;;;;;;5010171;28;99715;-68
2022/12/11 11:22:56;;;;;;;35.50;19.80;;;;;;;;;;5010763;28;100322;-68
2022/12/11 11:25:27;;;;;;;33.80;18.92;;;;;;;;;;5010225;28;99136;-69
2022/12/11 11:27:58;;;;;;;35.65;18.75;;;;;;;;;;5010770;28;98567;-68
2022/12/11 11:30:33;;;;;;;34.50;18.95;;;;;;;;;;5010547;28;99236;-69
2022/12/11 11:33:04;;;;;;;37.85;19.23;;;;;;;;;;5010547;28;100531;-69
2022/12/11 11:35:30;;;;;;;32.53;17.95;;;;;;;;;;5010448;28;98917;-69
2022/12/11 11:38:01;;;;;;;31.67;17.92;;;;;;;;;;5010801;28;99556;-68
2022/12/11 11:40:35;;;;;;;37.83;18.63;;;;;;;;;;5013363;28;99664;-69
2022/12/11 11:43:21;;;;;;;33.95;18.45;;;;;;;;;;5009513;28;100768;-69
2022/12/11 11:46:06;;;;;;;32.70;17.25;;;;;;;;;;4996905;28;100098;-68
2022/12/11 11:48:33;;;;;;;35.08;18.23;;;;;;;;;;5010598;28;98804;-69
2022/12/11 11:51:04;;;;;;;35.28;18.40;;;;;;;;;;5010309;28;99345;-68
2022/12/11 11:53:36;;;;;;;35.22;18.55;;;;;;;;;;5009966;28;99851;-69
2022/12/11 11:56:20;;;;;;;30.25;17.10;;;;;;;;;;5010422;28;98585;-69
2022/12/11 11:58:49;;;;;;;34.15;17.92;;;;;;;;;;5008791;28;99333;-69
2022/12/11 12:01:17;;;;;;;30.33;17.20;;;;;;;;;;5008420;28;98710;-69
2022/12/11 12:03:51;;;;;;;31.35;17.35;;;;;;;;;;5038191;28;86380;-66
2022/12/11 12:06:20;;;;;;;31.23;16.27;;;;;;;;;;5031991;28;89420;-67
2022/12/11 12:08:56;;;;;;;32.20;16.70;;;;;;;;;;5032346;28;89530;-67
2022/12/11 12:11:41;;;;;;;32.20;16.95;;;;;;;;;;5033694;28;88993;-66
2022/12/11 12:14:27;;;;;;;32.83;17.15;;;;;;;;;;5032433;28;90374;-67
2022/12/11 12:17:22;;;;;;;36.72;17.38;;;;;;;;;;5033389;28;90142;-66
2022/12/11 12:20:07;;;;;;;30.70;17.65;;;;;;;;;;5033501;27;88860;-67
2022/12/11 12:22:39;;;;;;;33.70;18.20;;;;;;;;;;5033334;27;90522;-68
2022/12/11 12:25:25;;;;;;;35.78;19.10;;;;;;;;;;5036356;27;89511;-67
2022/12/11 12:27:58;;;;;;;32.50;17.77;;;;;;;;;;5032757;27;90365;-67
2022/12/11 12:30:25;;;;;;;34.78;18.17;;;;;;;;;;5033237;27;89847;-68
2022/12/11 12:32:52;;;;;;;33.13;17.88;;;;;;;;;;5033002;27;88925;-67
2022/12/11 12:35:28;;;;;;;30.25;16.00;;;;;;;;;;5033670;28;91371;-67
2022/12/11 12:37:57;;;;;;;33.63;18.48;;;;;;;;;;5032813;27;89885;-66
2022/12/11 12:40:23;;;;;;;36.28;18.17;;;;;;;;;;5033461;28;89102;-67
2022/12/11 12:43:02;;;;;;;41.88;19.33;;;;;;;;;;5033197;28;89836;-67
2022/12/11 12:45:35;;;;;;;36.70;17.92;;;;;;;;;;5033066;27;89844;-66
2022/12/11 12:48:02;;;;;;;32.50;17.85;;;;;;;;;;5036374;28;89436;-66
2022/12/11 12:50:36;;;;;;;35.78;17.40;;;;;;;;;;5032905;27;89470;-67
2022/12/11 12:53:03;;;;;;;41.65;18.90;;;;;;;;;;5031441;28;89231;-67
2022/12/11 12:55:30;;;;;;;29.60;16.75;;;;;;;;;;5032863;27;90040;-66
2022/12/11 12:57:59;;;;;;;33.53;18.02;;;;;;;;;;5032591;27;89723;-66
2022/12/11 13:00:38;;;;;;;36.05;18.73;;;;;;;;;;5032782;27;88881;-67
2022/12/11 13:03:21;;;;;;;45.58;20.50;;;;;;;;;;5032435;27;90001;-67
2022/12/11 13:05:54;;;;;;;41.33;20.23;;;;;;;;;;5033104;27;91611;-67
2022/12/11 13:08:23;;;;;;;37.55;19.30;;;;;;;;;;5032345;27;89183;-67
2022/12/11 13:10:57;;;;;;;41.70;20.70;;;;;;;;;;5035940;28;90434;-67
2022/12/11 13:13:28;;;;;;;38.55;19.65;;;;;;;;;;5029582;27;88902;-67
2022/12/11 13:16:04;;;;;;;41.95;20.50;;;;;;;;;;5019212;28;91394;-67
2022/12/11 13:18:33;;;;;;;38.38;19.13;;;;;;;;;;5019108;28;91170;-67
2022/12/11 13:21:00;;;;;;;42.40;20.58;;;;;;;;;;5019099;28;89021;-67
2022/12/11 13:23:28;;;;;;;48.70;22.20;;;;;;;;;;5018927;28;89959;-67
2022/12/11 13:25:57;;;;;;;41.42;21.88;;;;;;;;;;5019094;28;90553;-67
2022/12/11 13:28:32;;;;;;;41.05;21.42;;;;;;;;;;5018656;28;88921;-66
2022/12/11 13:31:13;;;;;;;43.08;21.48;;;;;;;;;;5019125;28;90029;-67
2022/12/11 13:33:50;;;;;;;43.35;21.90;;;;;;;;;;5021650;28;90356;-66
2022/12/11 13:36:22;;;;;;;45.38;22.52;;;;;;;;;;5018639;28;89922;-66
2022/12/11 13:39:10;;;;;;;48.90;22.13;;;;;;;;;;5018258;28;89439;-67
2022/12/11 13:41:37;;;;;;;46.45;22.13;;;;;;;;;;5014762;28;89120;-67
2022/12/11 13:44:03;;;;;;;55.33;23.48;;;;;;;;;;5017460;28;89924;-66
2022/12/11 13:46:32;;;;;;;43.60;22.15;;;;;;;;;;5013391;28;89554;-67
2022/12/11 13:49:01;;;;;;;44.88;21.75;;;;;;;;;;5018576;28;88890;-67
2022/12/11 13:51:28;;;;;;;48.65;25.02;;;;;;;;;;5018487;28;91244;-67
2022/12/11 13:54:03;;;;;;;51.58;23.92;;;;;;;;;;5018424;28;89604;-67
2022/12/11 13:56:30;;;;;;;46.40;22.45;;;;;;;;;;5021846;28;89043;-67
2022/12/11 13:58:56;;;;;;;49.05;23.55;;;;;;;;;;5018446;28;89687;-67
2022/12/11 14:01:26;;;;;;;47.17;22.77;;;;;;;;;;5018421;28;88884;-67
2022/12/11 14:03:54;;;;;;;46.47;22.63;;;;;;;;;;5018061;28;90839;-67
2022/12/11 14:06:21;;;;;;;44.75;22.55;;;;;;;;;;5018171;28;90742;-67
2022/12/11 14:08:48;;;;;;;46.28;23.35;;;;;;;;;;5018266;28;89073;-66
2022/12/11 14:11:23;;;;;;;45.13;23.30;;;;;;;;;;5018228;28;90084;-67
2022/12/11 14:13:50;;;;;;;48.15;24.15;;;;;;;;;;5018050;28;89897;-67
2022/12/11 14:16:20;;;;;;;49.20;25.08;;;;;;;;;;5017677;28;88950;-66
2022/12/11 14:18:46;;;;;;;;;;;;;;;;;;5020132;28;89211;-67
2022/12/11 14:21:20;;;;;;;47.10;22.77;;;;;;;;;;5020227;28;118657;-66
2022/12/11 14:23:51;;;;;;;50.53;23.60;;;;;;;;;;5018168;28;88941;-67
2022/12/11 14:26:22;;;;;;;52.30;23.63;;;;;;;;;;5017026;28;90695;-66
2022/12/11 14:28:48;;;;;;;44.92;23.33;;;;;;;;;;5017620;28;89412;-66
2022/12/11 14:31:17;;;;;;;53.58;24.58;;;;;;;;;;5018451;28;89752;-66
2022/12/11 14:33:47;;;;;;;57.92;24.85;;;;;;;;;;5017611;28;89711;-67